createdAt,value
2023-02-04T00:00:29.245Z,100.00
2023-02-04T00:02:57.511Z,100.00
2023-02-04T00:05:25.329Z,100.00
2023-02-04T00:07:54.501Z,100.00
2023-02-04T00:10:22.380Z,100.00
2023-02-04T00:12:50.134Z,100.00
2023-02-04T00:15:17.958Z,100.00
2023-02-04T00:17:45.727Z,100.00
2023-02-04T00:20:13.942Z,100.00
2023-02-04T00:22:41.791Z,100.00
2023-02-04T00:25:11.114Z,100.00
2023-02-04T00:27:39.085Z,100.00
2023-02-04T00:30:08.620Z,100.00
2023-02-04T00:32:36.767Z,100.00
2023-02-04T00:35:04.894Z,100.00
2023-02-04T00:37:32.659Z,100.00
2023-02-04T00:40:00.442Z,100.00
2023-02-04T00:42:29.619Z,100.00
2023-02-04T00:44:57.380Z,100.00
2023-02-04T00:47:25.096Z,100.00
2023-02-04T00:49:56.038Z,100.00
2023-02-04T00:52:23.877Z,100.00
2023-02-04T00:54:51.631Z,100.00
2023-02-04T00:57:20.323Z,100.00
2023-02-04T00:59:49.397Z,100.00
2023-02-04T01:02:18.416Z,100.00
2023-02-04T01:04:46.459Z,100.00
2023-02-04T01:07:14.401Z,100.00
2023-02-04T01:09:42.162Z,100.00
2023-02-04T01:12:09.900Z,100.00
2023-02-04T01:14:37.646Z,100.00
2023-02-04T01:17:06.966Z,100.00
2023-02-04T01:19:34.751Z,100.00
2023-02-04T01:22:02.661Z,100.00
2023-02-04T01:24:30.429Z,100.00
2023-02-04T01:26:58.195Z,100.00
2023-02-04T01:29:26.069Z,100.00
2023-02-04T01:31:53.901Z,100.00
2023-02-04T01:34:23.086Z,100.00
2023-02-04T01:36:50.810Z,100.00
2023-02-04T01:39:18.749Z,100.00
2023-02-04T01:41:47.453Z,100.00
2023-02-04T01:44:15.324Z,100.00
2023-02-04T01:46:43.230Z,100.00
2023-02-04T01:49:12.199Z,100.00
2023-02-04T01:51:41.361Z,100.00
2023-02-04T01:54:11.805Z,100.00
2023-02-04T01:56:41.234Z,100.00
2023-02-04T01:59:13.434Z,100.00
2023-02-04T02:01:43.474Z,100.00
2023-02-04T02:04:13.261Z,100.00
2023-02-04T02:06:46.765Z,100.00
2023-02-04T02:09:14.518Z,100.00
2023-02-04T02:11:42.421Z,100.00
2023-02-04T02:14:10.323Z,100.00
2023-02-04T02:16:38.293Z,100.00
2023-02-04T02:19:09.016Z,100.00
2023-02-04T02:21:42.767Z,100.00
2023-02-04T02:24:27.182Z,100.00
2023-02-04T02:26:56.553Z,100.00
2023-02-04T02:29:24.862Z,100.00
2023-02-04T02:31:53.092Z,100.00
2023-02-04T02:34:20.908Z,100.00
2023-02-04T02:36:48.707Z,100.00
2023-02-04T02:39:16.531Z,100.00
2023-02-04T02:41:45.838Z,100.00
2023-02-04T02:44:15.223Z,100.00
2023-02-04T02:46:43.038Z,100.00
2023-02-04T02:49:15.642Z,100.00
2023-02-04T02:51:43.485Z,100.00
2023-02-04T02:54:22.746Z,100.00
2023-02-04T02:56:52.161Z,100.00
2023-02-04T02:59:20.777Z,100.00
2023-02-04T03:01:51.834Z,100.00
2023-02-04T03:04:21.408Z,100.00
2023-02-04T03:06:49.680Z,100.00
2023-02-04T03:09:17.775Z,100.00
2023-02-04T03:11:45.568Z,100.00
2023-02-04T03:14:14.896Z,100.00
2023-02-04T03:16:44.370Z,100.00
2023-02-04T03:19:13.569Z,100.00
2023-02-04T03:21:42.344Z,100.00
2023-02-04T03:24:10.578Z,100.00
2023-02-04T03:26:38.646Z,100.00
2023-02-04T03:29:08.206Z,100.00
2023-02-04T03:31:37.866Z,100.00
2023-02-04T03:34:05.863Z,100.00
2023-02-04T03:36:33.870Z,100.00
2023-02-04T03:39:01.982Z,100.00
2023-02-04T03:41:32.075Z,100.00
2023-02-04T03:43:59.772Z,100.00
2023-02-04T03:46:28.626Z,100.00
2023-02-04T03:48:57.823Z,100.00
2023-02-04T03:51:27.360Z,100.00
2023-02-04T03:53:55.112Z,100.00
2023-02-04T03:56:22.881Z,100.00
2023-02-04T03:58:50.895Z,100.00
2023-02-04T04:01:18.735Z,100.00
2023-02-04T04:03:46.513Z,100.00
2023-02-04T04:06:15.614Z,100.00
2023-02-04T04:08:43.495Z,100.00
2023-02-04T04:11:11.237Z,100.00
2023-02-04T04:13:38.974Z,100.00
2023-02-04T04:16:07.681Z,100.00
2023-02-04T04:18:35.848Z,100.00
2023-02-04T04:21:03.778Z,100.00
2023-02-04T04:23:32.962Z,100.00
2023-02-04T04:26:00.738Z,100.00
2023-02-04T04:28:28.488Z,100.00
2023-02-04T04:30:56.473Z,100.00
2023-02-04T04:33:24.246Z,100.00
2023-02-04T04:35:51.957Z,100.00
2023-02-04T04:38:19.694Z,100.00
2023-02-04T04:40:48.773Z,100.00
2023-02-04T04:43:16.483Z,100.00
2023-02-04T04:45:44.239Z,100.00
2023-02-04T04:48:12.058Z,100.00
2023-02-04T04:50:39.834Z,100.00
2023-02-04T04:53:11.167Z,100.00
2023-02-04T04:55:39.211Z,100.00
2023-02-04T04:58:09.368Z,100.00
2023-02-04T05:00:37.213Z,100.00
2023-02-04T05:03:05.063Z,100.00
2023-02-04T05:05:32.804Z,100.00
2023-02-04T05:08:00.590Z,100.00
2023-02-04T05:10:28.318Z,100.00
2023-02-04T05:12:56.055Z,100.00
2023-02-04T05:15:25.174Z,100.00
2023-02-04T05:17:53.632Z,100.00
2023-02-04T05:20:21.326Z,100.00
2023-02-04T05:22:49.099Z,100.00
2023-02-04T05:25:17.687Z,100.00
2023-02-04T05:27:45.599Z,100.00
2023-02-04T05:30:14.259Z,100.00
2023-02-04T05:32:43.613Z,100.00
2023-02-04T05:35:11.476Z,100.00
2023-02-04T05:37:39.239Z,100.00
2023-02-04T05:40:08.131Z,100.00
2023-02-04T05:42:35.908Z,100.00
2023-02-04T05:45:03.696Z,100.00
2023-02-04T05:47:31.460Z,100.00
2023-02-04T05:50:00.627Z,100.00
2023-02-04T05:52:28.435Z,100.00
2023-02-04T05:54:56.137Z,100.00
2023-02-04T05:57:23.888Z,100.00
2023-02-04T05:59:51.672Z,100.00
2023-02-04T06:02:19.627Z,100.00
2023-02-04T06:04:47.347Z,100.00
2023-02-04T06:07:16.506Z,100.00
2023-02-04T06:09:44.801Z,100.00
2023-02-04T06:12:12.563Z,100.00
2023-02-04T06:14:40.264Z,100.00
2023-02-04T06:17:07.964Z,100.00
2023-02-04T06:19:35.674Z,100.00
2023-02-04T06:22:06.192Z,100.00
2023-02-04T06:24:35.291Z,100.00
2023-02-04T06:27:03.009Z,100.00
2023-02-04T06:29:30.789Z,100.00
2023-02-04T06:31:58.586Z,100.00
2023-02-04T06:34:26.405Z,100.00
2023-02-04T06:36:54.174Z,100.00
2023-02-04T06:39:22.112Z,100.00
2023-02-04T06:41:51.218Z,100.00
2023-02-04T06:44:18.961Z,100.00
2023-02-04T06:46:46.928Z,100.00
2023-02-04T06:49:14.714Z,100.00
2023-02-04T06:51:42.456Z,100.00
2023-02-04T06:54:10.225Z,100.00
2023-02-04T06:56:38.025Z,100.00
2023-02-04T06:59:07.160Z,100.00
2023-02-04T07:01:34.880Z,100.00
2023-02-04T07:04:02.661Z,100.00
2023-02-04T07:06:30.371Z,100.00
2023-02-04T07:08:58.206Z,100.00
2023-02-04T07:11:25.988Z,100.00
2023-02-04T07:13:53.764Z,100.00
2023-02-04T07:16:22.922Z,100.00
2023-02-04T07:18:50.775Z,100.00
2023-02-04T07:21:18.514Z,100.00
2023-02-04T07:23:46.366Z,100.00
2023-02-04T07:26:14.146Z,100.00
2023-02-04T07:28:42.434Z,100.00
2023-02-04T07:31:10.265Z,100.00
2023-02-04T07:33:39.623Z,100.00
2023-02-04T07:36:07.954Z,100.00
2023-02-04T07:38:35.706Z,100.00
2023-02-04T07:41:03.499Z,100.00
2023-02-04T07:43:31.323Z,100.00
2023-02-04T07:45:59.111Z,100.00
2023-02-04T07:48:26.921Z,100.00
2023-02-04T07:50:56.017Z,100.00
2023-02-04T07:53:23.799Z,100.00
2023-02-04T07:55:51.508Z,100.00
2023-02-04T07:58:19.267Z,100.00
2023-02-04T08:00:47.031Z,100.00
2023-02-04T08:03:14.819Z,100.00
2023-02-04T08:05:42.602Z,100.00
2023-02-04T08:08:11.774Z,100.00
2023-02-04T08:10:39.668Z,100.00
2023-02-04T08:13:07.419Z,100.00
2023-02-04T08:15:35.181Z,100.00
2023-02-04T08:18:03.024Z,100.00
2023-02-04T08:20:31.491Z,100.00
2023-02-04T08:22:59.521Z,100.00
2023-02-04T08:25:29.729Z,100.00
2023-02-04T08:27:57.545Z,100.00
2023-02-04T08:30:25.491Z,100.00
2023-02-04T08:32:53.400Z,100.00
2023-02-04T08:35:21.227Z,100.00
2023-02-04T08:37:49.057Z,100.00
2023-02-04T08:40:17.254Z,100.00
2023-02-04T08:42:46.905Z,100.00
2023-02-04T08:45:14.703Z,100.00
2023-02-04T08:47:42.445Z,100.00
2023-02-04T08:50:11.471Z,100.00
2023-02-04T08:52:39.243Z,100.00
2023-02-04T08:55:07.751Z,100.00
2023-02-04T08:57:35.930Z,100.00
2023-02-04T09:00:05.816Z,100.00
2023-02-04T09:02:33.604Z,100.00
2023-02-04T09:05:01.337Z,100.00
2023-02-04T09:07:29.116Z,100.00
2023-02-04T09:09:56.888Z,100.00
2023-02-04T09:12:24.650Z,100.00
2023-02-04T09:14:52.433Z,100.00
2023-02-04T09:17:21.530Z,100.00
2023-02-04T09:19:49.333Z,100.00
2023-02-04T09:22:17.190Z,100.00
2023-02-04T09:24:45.013Z,100.00
2023-02-04T09:27:12.776Z,100.00
2023-02-04T09:29:40.570Z,100.00
2023-02-04T09:32:08.339Z,100.00
2023-02-04T09:34:37.502Z,100.00
2023-02-04T09:37:05.387Z,100.00
2023-02-04T09:39:33.125Z,100.00
2023-02-04T09:42:00.950Z,100.00
2023-02-04T09:44:29.729Z,100.00
2023-02-04T09:47:00.374Z,100.00
2023-02-04T09:49:29.155Z,100.00
2023-02-04T09:51:58.323Z,100.00
2023-02-04T09:54:26.532Z,100.00
2023-02-04T09:56:54.369Z,100.00
2023-02-04T09:59:24.471Z,100.00
2023-02-04T10:01:56.415Z,100.00
2023-02-04T10:04:25.093Z,100.00
2023-02-04T10:06:53.038Z,100.00
2023-02-04T10:09:22.185Z,100.00
2023-02-04T10:11:50.054Z,100.00
2023-02-04T10:14:22.213Z,100.00
2023-02-04T10:16:57.204Z,100.00
2023-02-04T10:19:27.980Z,100.00
2023-02-04T10:21:56.072Z,100.00
2023-02-04T10:24:28.037Z,100.00
2023-02-04T10:26:55.889Z,100.00
2023-02-04T10:29:25.897Z,100.00
2023-02-04T10:31:54.680Z,100.00
2023-02-04T10:34:24.639Z,100.00
2023-02-04T10:36:54.540Z,100.00
2023-02-04T10:39:26.043Z,100.00
2023-02-04T10:41:55.675Z,100.00
2023-02-04T10:44:28.127Z,100.00
2023-02-04T10:47:02.817Z,100.00
2023-02-04T10:49:31.370Z,100.00
2023-02-04T10:51:59.205Z,100.00
2023-02-04T10:54:35.720Z,100.00
2023-02-04T10:57:13.908Z,100.00
2023-02-04T10:59:42.565Z,100.00
2023-02-04T11:02:33.756Z,100.00
2023-02-04T11:05:02.135Z,99.81
2023-02-04T11:07:30.680Z,98.52
2023-02-04T11:09:59.883Z,99.23
2023-02-04T11:12:41.091Z,99.60
2023-02-04T11:15:44.428Z,97.62
2023-02-04T11:18:14.645Z,96.40
2023-02-04T11:20:42.520Z,94.27
2023-02-04T11:23:18.680Z,95.96
2023-02-04T11:25:48.764Z,95.58
2023-02-04T11:28:17.788Z,94.64
2023-02-04T11:30:45.621Z,94.56
2023-02-04T11:33:26.323Z,91.04
2023-02-04T11:36:04.583Z,92.41
2023-02-04T11:38:34.154Z,93.04
2023-02-04T11:41:03.605Z,92.57
2023-02-04T11:43:35.816Z,92.72
2023-02-04T11:46:06.320Z,91.86
2023-02-04T11:48:37.235Z,91.55
2023-02-04T11:51:13.018Z,90.39
2023-02-04T11:53:40.903Z,90.13
2023-02-04T11:56:18.251Z,90.66
2023-02-04T11:58:46.090Z,90.45
2023-02-04T12:01:21.123Z,89.84
2023-02-04T12:03:51.241Z,90.77
2023-02-04T12:06:23.408Z,90.97
2023-02-04T12:08:51.549Z,90.87
2023-02-04T12:11:30.499Z,90.47
2023-02-04T12:14:00.704Z,90.07
2023-02-04T12:16:28.562Z,90.29
2023-02-04T12:18:56.391Z,90.12
2023-02-04T12:21:24.161Z,89.60
2023-02-04T12:23:51.908Z,88.86
2023-02-04T12:26:19.631Z,88.34
2023-02-04T12:28:48.771Z,88.77
2023-02-04T12:31:16.651Z,88.29
2023-02-04T12:33:44.445Z,87.62
2023-02-04T12:36:12.128Z,88.34
2023-02-04T12:38:40.623Z,88.30
2023-02-04T12:41:08.525Z,88.56
2023-02-04T12:43:36.260Z,89.07
2023-02-04T12:46:05.876Z,88.94
2023-02-04T12:48:33.648Z,88.79
2023-02-04T12:51:01.472Z,87.72
2023-02-04T12:53:29.184Z,87.07
2023-02-04T12:55:57.854Z,88.15
2023-02-04T12:58:25.795Z,88.20
2023-02-04T13:00:53.538Z,88.01
2023-02-04T13:03:23.720Z,87.66
2023-02-04T13:05:51.454Z,88.33
2023-02-04T13:08:19.173Z,87.78
2023-02-04T13:10:51.764Z,87.72
2023-02-04T13:13:20.300Z,88.12
2023-02-04T13:15:48.364Z,87.19
2023-02-04T13:18:17.505Z,88.06
2023-02-04T13:20:47.025Z,87.25
2023-02-04T13:23:14.906Z,87.65
2023-02-04T13:25:43.824Z,87.96
2023-02-04T13:28:11.638Z,88.70
2023-02-04T13:30:39.515Z,89.67
2023-02-04T13:33:07.263Z,89.85
2023-02-04T13:35:35.188Z,90.02
2023-02-04T13:38:04.390Z,90.57
2023-02-04T13:40:32.116Z,90.87
2023-02-04T13:42:59.908Z,90.81
2023-02-04T13:45:27.778Z,90.51
2023-02-04T13:47:55.601Z,90.73
2023-02-04T13:50:23.372Z,90.92
2023-02-04T13:52:51.257Z,90.96
2023-02-04T13:55:20.397Z,90.74
2023-02-04T13:57:48.130Z,90.00
2023-02-04T14:00:16.512Z,90.47
2023-02-04T14:02:44.261Z,90.74
2023-02-04T14:05:12.032Z,90.88
2023-02-04T14:07:39.794Z,91.01
2023-02-04T14:10:08.597Z,91.63
2023-02-04T14:12:37.775Z,91.74
2023-02-04T14:15:06.023Z,92.24
2023-02-04T14:17:33.790Z,92.57
2023-02-04T14:20:01.546Z,92.75
2023-02-04T14:22:29.294Z,93.38
2023-02-04T14:24:57.065Z,92.93
2023-02-04T14:27:24.887Z,93.05
2023-02-04T14:29:54.054Z,93.29
2023-02-04T14:32:21.952Z,93.57
2023-02-04T14:34:49.701Z,93.73
2023-02-04T14:37:17.393Z,93.84
2023-02-04T14:39:45.139Z,93.99
2023-02-04T14:42:12.879Z,94.25
2023-02-04T14:44:40.602Z,94.30
2023-02-04T14:47:09.712Z,93.94
2023-02-04T14:49:38.109Z,94.21
2023-02-04T14:52:06.335Z,94.37
2023-02-04T14:54:34.149Z,94.21
2023-02-04T14:57:02.113Z,94.00
2023-02-04T14:59:29.837Z,93.91
2023-02-04T15:01:57.658Z,93.85
2023-02-04T15:04:26.855Z,93.77
2023-02-04T15:06:54.562Z,93.67
2023-02-04T15:09:22.398Z,93.67
2023-02-04T15:11:50.149Z,93.69
2023-02-04T15:14:17.962Z,93.93
2023-02-04T15:16:48.524Z,93.88
2023-02-04T15:19:17.677Z,93.82
2023-02-04T15:21:46.856Z,93.97
2023-02-04T15:24:14.687Z,93.84
2023-02-04T15:26:42.488Z,93.94
2023-02-04T15:29:10.337Z,94.00
2023-02-04T15:31:38.195Z,94.10
2023-02-04T15:34:06.280Z,93.90
2023-02-04T15:36:34.072Z,94.13
2023-02-04T15:39:03.218Z,93.91
2023-02-04T15:41:31.019Z,94.02
2023-02-04T15:43:58.806Z,93.89
2023-02-04T15:46:27.389Z,93.75
2023-02-04T15:48:55.238Z,94.18
2023-02-04T15:51:23.030Z,93.99
2023-02-04T15:53:50.826Z,93.94
2023-02-04T15:56:20.216Z,94.14
2023-02-04T15:58:48.008Z,94.46
2023-02-04T16:01:15.834Z,94.42
2023-02-04T16:03:44.767Z,94.53
2023-02-04T16:06:12.521Z,93.45
2023-02-04T16:08:40.301Z,94.00
2023-02-04T16:11:08.121Z,94.23
2023-02-04T16:13:37.541Z,94.54
2023-02-04T16:16:05.741Z,94.49
2023-02-04T16:18:33.535Z,94.77
2023-02-04T16:21:01.373Z,94.76
2023-02-04T16:23:29.142Z,94.42
2023-02-04T16:25:56.928Z,94.85
2023-02-04T16:28:25.376Z,94.73
2023-02-04T16:30:54.748Z,95.13
2023-02-04T16:33:22.887Z,94.81
2023-02-04T16:35:59.255Z,94.88
2023-02-04T16:38:27.841Z,94.70
2023-02-04T16:40:56.026Z,94.99
2023-02-04T16:43:24.524Z,94.75
2023-02-04T16:45:52.667Z,94.91
2023-02-04T16:48:21.746Z,94.40
2023-02-04T16:50:49.536Z,94.80
2023-02-04T16:53:17.270Z,94.66
2023-02-04T16:55:45.680Z,95.11
2023-02-04T16:58:14.259Z,95.19
2023-02-04T17:00:44.064Z,95.68
2023-02-04T17:03:12.776Z,95.30
2023-02-04T17:05:42.961Z,95.38
2023-02-04T17:08:13.128Z,95.14
2023-02-04T17:10:58.694Z,95.34
2023-02-04T17:13:26.665Z,95.42
2023-02-04T17:16:00.445Z,95.39
2023-02-04T17:18:29.519Z,95.49
2023-02-04T17:20:59.449Z,95.31
2023-02-04T17:23:28.382Z,95.12
2023-02-04T17:25:56.543Z,95.21
2023-02-04T17:28:24.653Z,95.15
2023-02-04T17:30:52.487Z,94.96
2023-02-04T17:33:20.652Z,95.19
2023-02-04T17:35:48.716Z,95.09
2023-02-04T17:38:17.933Z,94.85
2023-02-04T17:40:46.603Z,95.05
2023-02-04T17:43:14.407Z,94.81
2023-02-04T17:45:42.117Z,94.91
2023-02-04T17:48:09.948Z,94.84
2023-02-04T17:50:40.146Z,94.91
2023-02-04T17:53:09.224Z,94.51
2023-02-04T17:55:40.090Z,94.67
2023-02-04T17:58:16.260Z,94.92
2023-02-04T18:00:46.658Z,94.86
2023-02-04T18:03:15.504Z,95.02
2023-02-04T18:05:46.928Z,95.06
2023-02-04T18:08:16.886Z,95.04
2023-02-04T18:10:47.172Z,95.01
2023-02-04T18:13:17.311Z,94.92
2023-02-04T18:15:48.199Z,95.12
2023-02-04T18:18:27.144Z,95.12
2023-02-04T18:20:59.791Z,94.79
2023-02-04T18:23:29.379Z,95.26
2023-02-04T18:26:03.168Z,95.24
2023-02-04T18:28:30.706Z,95.33
2023-02-04T18:31:01.793Z,95.03
2023-02-04T18:33:34.621Z,95.30
2023-02-04T18:36:02.974Z,95.32
2023-02-04T18:38:34.393Z,95.44
2023-02-04T18:41:27.614Z,95.30
2023-02-04T18:44:02.463Z,95.73
2023-02-04T18:46:33.200Z,95.87
2023-02-04T18:49:07.401Z,96.00
2023-02-04T18:51:40.252Z,96.43
2023-02-04T18:54:36.529Z,96.04
2023-02-04T18:57:29.139Z,95.95
2023-02-04T19:00:26.179Z,96.16
2023-02-04T19:02:56.675Z,96.04
2023-02-04T19:05:29.933Z,96.11
2023-02-04T19:08:18.581Z,96.52
2023-02-04T19:10:46.332Z,96.32
2023-02-04T19:13:20.039Z,96.19
2023-02-04T19:15:59.698Z,96.27
2023-02-04T19:18:29.733Z,96.78
2023-02-04T19:21:09.533Z,96.67
2023-02-04T19:23:38.965Z,97.25
2023-02-04T19:26:37.894Z,96.80
2023-02-04T19:29:41.118Z,96.95
2023-02-04T19:32:35.336Z,97.29
2023-02-04T19:35:17.957Z,97.36
2023-02-04T19:37:48.875Z,97.72
2023-02-04T19:40:30.255Z,97.54
2023-02-04T19:43:05.287Z,97.75
2023-02-04T19:45:35.438Z,98.17
2023-02-04T19:48:14.754Z,98.22
2023-02-04T19:50:42.522Z,98.92
2023-02-04T19:53:16.652Z,98.76
2023-02-04T19:55:46.073Z,99.08
2023-02-04T19:58:18.264Z,99.55
2023-02-04T20:00:57.503Z,99.31
2023-02-04T20:03:41.553Z,99.91
2023-02-04T20:06:27.319Z,99.61
2023-02-04T20:09:03.572Z,99.65
2023-02-04T20:11:53.731Z,99.94
2023-02-04T20:14:27.667Z,99.82
2023-02-04T20:16:58.519Z,100.00
2023-02-04T20:19:37.882Z,100.00
2023-02-04T20:22:39.110Z,100.00
2023-02-04T20:25:46.889Z,100.00
2023-02-04T20:28:31.040Z,100.00
2023-02-04T20:30:59.588Z,100.00
2023-02-04T20:33:32.896Z,100.00
2023-02-04T20:36:34.692Z,100.00
2023-02-04T20:39:24.631Z,100.00
2023-02-04T20:41:52.423Z,100.00
2023-02-04T20:44:27.246Z,100.00
2023-02-04T20:47:03.234Z,100.00
2023-02-04T20:49:41.263Z,100.00
2023-02-04T20:52:48.603Z,100.00
2023-02-04T20:55:25.191Z,100.00
2023-02-04T20:57:53.852Z,100.00
2023-02-04T21:00:30.333Z,100.00
2023-02-04T21:03:08.562Z,100.00
2023-02-04T21:05:37.670Z,100.00
2023-02-04T21:08:23.124Z,100.00
2023-02-04T21:10:50.838Z,100.00
2023-02-04T21:13:18.612Z,100.00
2023-02-04T21:15:46.492Z,100.00
2023-02-04T21:18:14.331Z,100.00
2023-02-04T21:20:43.443Z,100.00
2023-02-04T21:23:11.258Z,100.00
2023-02-04T21:25:38.974Z,100.00
2023-02-04T21:28:07.135Z,100.00
2023-02-04T21:30:35.006Z,100.00
2023-02-04T21:33:03.351Z,100.00
2023-02-04T21:35:31.311Z,100.00
2023-02-04T21:38:04.063Z,100.00
2023-02-04T21:40:32.594Z,100.00
2023-02-04T21:43:00.483Z,100.00
2023-02-04T21:45:28.289Z,100.00
2023-02-04T21:47:56.075Z,100.00
2023-02-04T21:50:23.840Z,100.00
2023-02-04T21:52:51.690Z,100.00
2023-02-04T21:55:22.455Z,100.00
2023-02-04T21:57:51.123Z,100.00
2023-02-04T22:00:19.973Z,100.00
2023-02-04T22:02:47.664Z,100.00
2023-02-04T22:05:15.408Z,100.00
2023-02-04T22:07:43.206Z,100.00
2023-02-04T22:10:13.018Z,100.00
2023-02-04T22:12:42.308Z,100.00
2023-02-04T22:15:21.129Z,100.00
2023-02-04T22:17:49.307Z,100.00
2023-02-04T22:20:17.506Z,100.00
2023-02-04T22:22:46.191Z,100.00
2023-02-04T22:25:16.038Z,100.00
2023-02-04T22:27:45.343Z,100.00
2023-02-04T22:30:15.337Z,100.00
2023-02-04T22:32:43.121Z,100.00
2023-02-04T22:35:12.168Z,100.00
2023-02-04T22:37:40.954Z,100.00
2023-02-04T22:40:11.103Z,100.00
2023-02-04T22:42:39.124Z,100.00
2023-02-04T22:45:10.307Z,100.00
2023-02-04T22:47:39.163Z,100.00
2023-02-04T22:50:07.588Z,100.00
2023-02-04T22:52:35.311Z,100.00
2023-02-04T22:55:03.160Z,100.00
2023-02-04T22:57:30.879Z,100.00
2023-02-04T22:59:59.167Z,100.00
2023-02-04T23:02:28.280Z,100.00
2023-02-04T23:04:56.026Z,100.00
2023-02-04T23:07:23.876Z,100.00
2023-02-04T23:09:51.882Z,100.00
2023-02-04T23:12:19.624Z,100.00
2023-02-04T23:14:49.568Z,100.00
2023-02-04T23:17:18.765Z,100.00
2023-02-04T23:19:47.882Z,100.00
2023-02-04T23:22:16.531Z,100.00
2023-02-04T23:24:44.863Z,100.00
2023-02-04T23:27:12.836Z,100.00
2023-02-04T23:29:41.445Z,100.00
2023-02-04T23:32:09.829Z,100.00
2023-02-04T23:34:37.625Z,100.00
2023-02-04T23:37:06.849Z,100.00
2023-02-04T23:39:34.646Z,100.00
2023-02-04T23:42:02.466Z,100.00
2023-02-04T23:44:30.162Z,100.00
2023-02-04T23:46:57.891Z,100.00
2023-02-04T23:49:25.820Z,100.00
2023-02-04T23:51:53.630Z,100.00
2023-02-04T23:54:23.650Z,100.00
2023-02-04T23:56:51.803Z,100.00
2023-02-04T23:59:19.829Z,100.00
